Jacumba, CA

11:44 PM PDT en Septiembre 01, 2014 (GMT -0700)
J-town | Change Station
CLOSE
Current Station
Estación meteorológica personal
Location: Jacumba, CA
Altura: 2799 ft
Estaciones meteorológicas cercanas

Alt 2799 ft 32.62 °N, 116.19 °W | Updated 2 minutes ago

Despejado
Despejado
64.9 ° F
Sensación térmica 64.9 ° F
N
0.0
Viento Variable Viento desde SO
Gusts 0.7 mph

Hoy
Alta -- | Baja -- ° F
--% Posibilidad de precipitaciones
Ayer
Alta -- | Baja -- ° F
Precip. -- pul
6:19 AM 7:09 PM
Creciente, 48% visible
Presión 29.80 pul
Visibilidad -9999.0 Millas
Nubes
Punto de rocío 42 ° F
Humedad 43%
Precipitaciones 0.00 pul
Espesor de la nieve No disponible.
UV 0.0 de una escala de 12
Polen 8.30 de una escala de 12
Calidad del aire No disponible.
Flu Activity No disponible.
METAR KCZZ 020552Z AUTO 07004KT 15/04 A2990 RMK AO1 SLP089 T01500039 10322 20150 51010

More Conditions Fewer Conditions

Presión 29.80 pul
Visibilidad -9999.0 Millas
Nubes
Punto de rocío 42 ° F
Humedad 43%
Precipitaciones 0.00 pul
Espesor de la nieve No disponible.
UV 0.0 de una escala de 12
Polen 8.30 de una escala de 12
Calidad del aire No disponible.
Flu Activity No disponible.
METAR KCZZ 020552Z AUTO 07004KT 15/04 A2990 RMK AO1 SLP089 T01500039 10322 20150 51010

More Conditions Fewer Conditions

10-Day Weather Forecast

Almanac

Astronomía

Sep. 01, 2014 Salida Puesta
Hora real 6:19 AM PDT 7:09 PM PDT
Crepúsculo civil 5:54 AM PDT 7:34 PM PDT
Crepúsculo náutico 5:24 AM PDT 8:03 PM PDT
Crepúsculo astronómico 4:54 AM PDT 8:34 PM PDT
Luna 12:47 PM PDT (9/1) 11:36 PM PDT (9/1)
Horas de luz 13h 39m
Horas de luz
12h 49m
Tomorrow will be 1m 56s shorter.
Creciente, 48% of the Moon is Illuminated
Sep 2
Creciente
Sep 2
Cuarto creciente
Sep 8
Luna llena
Sep 15
Cuarto menguante
Sep 24
Nueva

Community

WunderPhotos

Upload Photos

1,749,589 ¡fotos cargadas!

WunderBlogs® & News

Nearby

Grosos de nieve

Estación Profundido Altura
Leavitt Lake 0 in 9400 ft
Leavitt Meadows 0 in 7200 ft
Summit Meadow 0 in 9122 ft
Ebbetts Pass 0 in 8700 ft
Monitor Pass 0 in 8350 ft

Actividad de terremotos

Ciudad Distance Mag. Tiempo y dato
Holtville, California 45 Millas 2.5 5:43 PM PDT
2014-09-01
Holtville, California 46 Millas 2.5 5:26 PM PDT
2014-09-01
Magnitud mínima muestra es 2,5.

Temperaturas de aguas costeras

Lugar Temperatura
Sin partes meteorológicos de las estaciones

Estaciones meteorológicas cercanas